Time;durP1;ratioP1;P1;durP2;ratioP2;P2;SDS_P1;SDS_P2;PMS_P1;PMS_P2;Temp;Humidity;BMP_temperature;BMP_pressure;BME280_temperature;BME280_humidity;BME280_pressure;Samples;Min_cycle;Max_cycle;Signal;HPM_P1;HPM_P2
2024/02/16 00:01:24;;;;;;;2.40;2.30;;;;;;;;;;5018702;28;20987;-84
2024/02/16 00:03:51;;;;;;;6.10;5.70;;;;;;;;;;5019475;28;20490;-84
2024/02/16 00:06:17;;;;;;;2.43;2.33;;;;;;;;;;5025038;28;20460;-85
2024/02/16 00:08:44;;;;;;;2.47;2.37;;;;;;;;;;5023753;28;20461;-84
2024/02/16 00:11:10;;;;;;;2.40;2.30;;;;;;;;;;5025574;28;20486;-85
2024/02/16 00:13:37;;;;;;;2.70;2.60;;;;;;;;;;5023942;28;20509;-86
2024/02/16 00:16:05;;;;;;;1.87;1.80;;;;;;;;;;5024549;28;20494;-85
2024/02/16 00:18:31;;;;;;;1.60;1.60;;;;;;;;;;5030017;28;20555;-86
2024/02/16 00:20:58;;;;;;;1.60;1.60;;;;;;;;;;5015968;28;20461;-85
2024/02/16 00:23:25;;;;;;;1.70;1.70;;;;;;;;;;5019925;28;20526;-86
2024/02/16 00:25:51;;;;;;;2.73;2.63;;;;;;;;;;5017948;28;20482;-86
2024/02/16 00:28:18;;;;;;;3.03;2.93;;;;;;;;;;5022789;28;20488;-87
2024/02/16 00:30:46;;;;;;;2.17;2.07;;;;;;;;;;5017708;28;20475;-85
2024/02/16 00:33:17;;;;;;;2.60;2.50;;;;;;;;;;5031293;28;20493;-85
2024/02/16 00:35:44;;;;;;;2.30;2.20;;;;;;;;;;5017878;28;20884;-86
2024/02/16 00:38:10;;;;;;;2.57;2.47;;;;;;;;;;5022733;28;20537;-85
2024/02/16 00:40:37;;;;;;;2.50;2.40;;;;;;;;;;5016474;28;20574;-85
2024/02/16 00:43:04;;;;;;;2.90;2.80;;;;;;;;;;5026550;28;20446;-85
2024/02/16 00:45:30;;;;;;;2.50;2.40;;;;;;;;;;5023105;28;20454;-85
2024/02/16 00:47:57;;;;;;;1.63;1.63;;;;;;;;;;5025348;28;20475;-85
2024/02/16 00:50:25;;;;;;;1.97;1.87;;;;;;;;;;5003334;28;20463;-86
2024/02/16 00:52:51;;;;;;;1.90;1.80;;;;;;;;;;5025354;28;21003;-86
2024/02/16 00:55:18;;;;;;;1.90;1.80;;;;;;;;;;5018777;28;20475;-86
2024/02/16 00:57:44;;;;;;;2.53;2.43;;;;;;;;;;5021693;28;20486;-86
2024/02/16 01:00:11;;;;;;;2.40;2.30;;;;;;;;;;5024696;28;20451;-86
2024/02/16 01:02:38;;;;;;;2.80;2.70;;;;;;;;;;5021376;28;20528;-86
2024/02/16 01:05:05;;;;;;;2.73;2.63;;;;;;;;;;5013626;28;20483;-86
2024/02/16 01:07:33;;;;;;;2.50;2.40;;;;;;;;;;5023698;28;20522;-86
2024/02/16 01:09:59;;;;;;;2.83;2.73;;;;;;;;;;5024624;28;20454;-85
2024/02/16 01:12:26;;;;;;;2.93;2.83;;;;;;;;;;5019128;28;20509;-86
2024/02/16 01:14:52;;;;;;;2.80;2.70;;;;;;;;;;5020166;28;20516;-86
2024/02/16 01:17:19;;;;;;;3.20;3.10;;;;;;;;;;5012389;28;20581;-86
2024/02/16 01:19:46;;;;;;;3.40;3.30;;;;;;;;;;5024181;28;20588;-85
2024/02/16 01:22:13;;;;;;;3.10;3.00;;;;;;;;;;5027515;28;20475;-84
2024/02/16 01:24:41;;;;;;;3.40;3.30;;;;;;;;;;5030644;28;20593;-85
2024/02/16 01:27:07;;;;;;;3.53;3.43;;;;;;;;;;5018974;28;20505;-84
2024/02/16 01:29:34;;;;;;;4.23;4.13;;;;;;;;;;5021480;28;20494;-85
2024/02/16 01:32:00;;;;;;;3.60;3.50;;;;;;;;;;5022588;28;20537;-85
2024/02/16 01:34:26;;;;;;;3.50;3.40;;;;;;;;;;5027880;28;20439;-85
2024/02/16 01:36:53;;;;;;;3.30;3.20;;;;;;;;;;5023660;28;20526;-85
2024/02/16 01:39:19;;;;;;;3.40;3.30;;;;;;;;;;5028566;28;20582;-85
2024/02/16 01:41:47;;;;;;;3.53;3.43;;;;;;;;;;5020446;28;20521;-85
2024/02/16 01:44:15;;;;;;;3.30;3.20;;;;;;;;;;5021212;28;20458;-84
2024/02/16 01:46:41;;;;;;;3.20;3.10;;;;;;;;;;5023864;28;20457;-85
2024/02/16 01:49:08;;;;;;;2.73;2.63;;;;;;;;;;5028607;28;20501;-85
2024/02/16 01:51:34;;;;;;;3.40;3.20;;;;;;;;;;5025814;28;20454;-85
2024/02/16 01:54:01;;;;;;;2.60;2.50;;;;;;;;;;5017290;28;21019;-86
2024/02/16 01:56:28;;;;;;;2.43;2.33;;;;;;;;;;5024925;28;20461;-84
2024/02/16 01:58:56;;;;;;;3.30;3.20;;;;;;;;;;5022767;28;20469;-85
2024/02/16 02:01:22;;;;;;;3.47;3.37;;;;;;;;;;5030048;28;20525;-85
2024/02/16 02:03:48;;;;;;;3.33;3.23;;;;;;;;;;5024709;28;20480;-85
2024/02/16 02:06:15;;;;;;;3.23;3.13;;;;;;;;;;5034311;28;20540;-85
2024/02/16 02:08:41;;;;;;;3.30;3.20;;;;;;;;;;5020783;28;20490;-85
2024/02/16 02:11:07;;;;;;;3.47;3.37;;;;;;;;;;5025640;28;20497;-84
2024/02/16 02:13:34;;;;;;;3.43;3.33;;;;;;;;;;5029247;28;20531;-84
2024/02/16 02:16:03;;;;;;;3.20;3.10;;;;;;;;;;5032657;28;20528;-85
2024/02/16 02:18:30;;;;;;;3.53;3.43;;;;;;;;;;5027987;28;20469;-85
2024/02/16 02:20:56;;;;;;;3.70;3.60;;;;;;;;;;5025256;28;20500;-85
2024/02/16 02:23:24;;;;;;;3.50;3.40;;;;;;;;;;5024084;28;21239;-86
2024/02/16 02:25:50;;;;;;;3.33;3.23;;;;;;;;;;5021175;28;20537;-87
2024/02/16 02:28:17;;;;;;;3.20;3.10;;;;;;;;;;5027356;28;21224;-86
2024/02/16 02:30:45;;;;;;;5.40;5.10;;;;;;;;;;5022443;28;20462;-85
2024/02/16 02:33:12;;;;;;;2.50;2.40;;;;;;;;;;5021166;28;20514;-85
2024/02/16 02:35:39;;;;;;;2.87;2.77;;;;;;;;;;5029296;28;20462;-85
2024/02/16 02:38:05;;;;;;;2.60;2.50;;;;;;;;;;5023484;28;20475;-85
2024/02/16 02:40:33;;;;;;;2.37;2.27;;;;;;;;;;5025934;28;20603;-85
2024/02/16 02:42:59;;;;;;;2.40;2.30;;;;;;;;;;5025568;28;20530;-85
2024/02/16 02:45:26;;;;;;;2.30;2.20;;;;;;;;;;5021256;28;20545;-84
2024/02/16 02:47:52;;;;;;;2.43;2.33;;;;;;;;;;5024176;28;20573;-84
2024/02/16 02:50:18;;;;;;;2.30;2.20;;;;;;;;;;5024121;28;20458;-85
2024/02/16 02:52:45;;;;;;;2.40;2.30;;;;;;;;;;5025019;28;20497;-85
2024/02/16 02:55:12;;;;;;;2.20;2.10;;;;;;;;;;5025862;28;20538;-85
2024/02/16 02:57:39;;;;;;;2.20;2.10;;;;;;;;;;5024939;28;20817;-84
2024/02/16 03:00:10;;;;;;;2.00;1.90;;;;;;;;;;5022749;28;20496;-85
2024/02/16 03:02:37;;;;;;;1.90;1.80;;;;;;;;;;5020170;28;20464;-84
2024/02/16 03:05:03;;;;;;;1.77;1.77;;;;;;;;;;5025977;28;20462;-85
2024/02/16 03:07:29;;;;;;;2.00;1.90;;;;;;;;;;5027420;28;20509;-84
2024/02/16 03:09:56;;;;;;;1.90;1.80;;;;;;;;;;5023846;28;20489;-84
2024/02/16 03:12:22;;;;;;;2.03;1.93;;;;;;;;;;5023501;28;20451;-85
2024/02/16 03:14:50;;;;;;;2.00;1.90;;;;;;;;;;5024060;28;20469;-85
2024/02/16 03:17:16;;;;;;;2.20;2.10;;;;;;;;;;5022644;28;20945;-85
2024/02/16 03:19:43;;;;;;;2.17;2.07;;;;;;;;;;5025602;28;20489;-84
2024/02/16 03:22:09;;;;;;;2.33;2.23;;;;;;;;;;5020015;28;20521;-85
2024/02/16 03:24:35;;;;;;;2.53;2.43;;;;;;;;;;5029946;28;20538;-85
2024/02/16 03:27:02;;;;;;;2.30;2.20;;;;;;;;;;5015365;28;20482;-85
2024/02/16 03:29:28;;;;;;;2.30;2.20;;;;;;;;;;5024348;28;20497;-84
2024/02/16 03:31:56;;;;;;;2.67;2.57;;;;;;;;;;5019718;28;21065;-84
2024/02/16 03:34:22;;;;;;;2.47;2.37;;;;;;;;;;5020439;28;20483;-85
2024/02/16 03:36:49;;;;;;;2.63;2.53;;;;;;;;;;5024058;28;21050;-84
2024/02/16 03:39:19;;;;;;;2.73;2.63;;;;;;;;;;5031610;28;20522;-84
2024/02/16 03:41:48;;;;;;;2.80;2.70;;;;;;;;;;5030429;28;21067;-84
2024/02/16 03:44:14;;;;;;;2.80;2.70;;;;;;;;;;5016583;28;20445;-83
2024/02/16 03:46:41;;;;;;;2.73;2.63;;;;;;;;;;5026352;28;20579;-85
2024/02/16 03:49:08;;;;;;;2.83;2.73;;;;;;;;;;5015804;28;20521;-84
2024/02/16 03:51:36;;;;;;;3.00;2.90;;;;;;;;;;5023064;28;20470;-84
2024/02/16 03:54:03;;;;;;;3.30;3.20;;;;;;;;;;5021703;28;20479;-85
2024/02/16 03:56:30;;;;;;;2.23;2.13;;;;;;;;;;5021029;28;20463;-84
2024/02/16 03:58:56;;;;;;;3.30;3.20;;;;;;;;;;5032923;28;20442;-85
2024/02/16 04:01:23;;;;;;;3.50;3.40;;;;;;;;;;5026939;28;21023;-85
2024/02/16 04:03:49;;;;;;;3.73;3.63;;;;;;;;;;5026394;28;21042;-85
2024/02/16 04:06:17;;;;;;;3.73;3.63;;;;;;;;;;5030148;28;20522;-86
2024/02/16 04:08:43;;;;;;;3.80;3.70;;;;;;;;;;5018356;28;20457;-86
2024/02/16 04:11:12;;;;;;;4.20;4.10;;;;;;;;;;5026890;28;20464;-85
2024/02/16 04:13:38;;;;;;;4.63;4.53;;;;;;;;;;5017298;28;20518;-85
2024/02/16 04:16:05;;;;;;;4.47;4.37;;;;;;;;;;5019223;28;20545;-86
2024/02/16 04:18:31;;;;;;;4.07;3.97;;;;;;;;;;5029123;28;20462;-86
2024/02/16 04:20:57;;;;;;;4.20;4.10;;;;;;;;;;5024449;28;20486;-86
2024/02/16 04:23:25;;;;;;;4.77;4.60;;;;;;;;;;5025144;28;20486;-86
2024/02/16 04:25:52;;;;;;;4.30;4.20;;;;;;;;;;5012583;28;20955;-86
2024/02/16 04:28:18;;;;;;;4.83;4.63;;;;;;;;;;5027330;28;20480;-85
2024/02/16 04:30:44;;;;;;;4.37;4.27;;;;;;;;;;5030189;28;20504;-86
2024/02/16 04:33:11;;;;;;;6.40;6.10;;;;;;;;;;5014301;28;20593;-86
2024/02/16 04:35:37;;;;;;;4.40;4.30;;;;;;;;;;5016407;28;20464;-86
2024/02/16 04:38:04;;;;;;;4.70;4.60;;;;;;;;;;5023423;28;20485;-85
2024/02/16 04:40:35;;;;;;;4.60;4.50;;;;;;;;;;5028727;28;20457;-85
2024/02/16 04:43:01;;;;;;;5.00;4.80;;;;;;;;;;5032107;28;21010;-86
2024/02/16 04:45:30;;;;;;;4.43;4.33;;;;;;;;;;5021069;28;20478;-86
2024/02/16 04:47:56;;;;;;;4.50;4.40;;;;;;;;;;5016584;28;20497;-85
2024/02/16 04:50:22;;;;;;;4.50;4.40;;;;;;;;;;5023604;28;20501;-86
2024/02/16 04:52:49;;;;;;;4.67;4.57;;;;;;;;;;5023978;28;20554;-85
2024/02/16 04:55:15;;;;;;;4.40;4.30;;;;;;;;;;5031013;28;20474;-85
2024/02/16 04:57:43;;;;;;;4.50;4.40;;;;;;;;;;5034913;28;20509;-85
2024/02/16 05:00:10;;;;;;;5.07;4.87;;;;;;;;;;5010218;28;20464;-84
2024/02/16 05:02:36;;;;;;;4.50;4.40;;;;;;;;;;5021524;28;20459;-84
2024/02/16 05:05:03;;;;;;;5.30;5.10;;;;;;;;;;5024753;28;20476;-85
2024/02/16 05:07:31;;;;;;;5.10;4.90;;;;;;;;;;5025223;28;20458;-85
2024/02/16 05:09:58;;;;;;;5.13;4.93;;;;;;;;;;5017105;28;20486;-85
2024/02/16 05:12:24;;;;;;;5.03;4.83;;;;;;;;;;5030918;28;20461;-84
2024/02/16 05:14:52;;;;;;;4.70;4.57;;;;;;;;;;5023870;28;20494;-84
2024/02/16 05:17:19;;;;;;;4.97;4.77;;;;;;;;;;5022038;28;20573;-85
2024/02/16 05:19:46;;;;;;;5.07;4.87;;;;;;;;;;5023658;28;20483;-86
2024/02/16 05:22:12;;;;;;;4.40;4.30;;;;;;;;;;5023098;28;20806;-85
2024/02/16 05:24:38;;;;;;;5.17;4.97;;;;;;;;;;5020881;28;20495;-85
2024/02/16 05:27:05;;;;;;;5.07;4.87;;;;;;;;;;5022887;28;20623;-86
2024/02/16 05:29:31;;;;;;;5.10;4.90;;;;;;;;;;5026687;28;20553;-86
2024/02/16 05:31:59;;;;;;;5.10;4.90;;;;;;;;;;5019563;28;20519;-86
2024/02/16 05:34:25;;;;;;;4.70;4.60;;;;;;;;;;5018103;28;20489;-86
2024/02/16 05:36:52;;;;;;;5.00;4.80;;;;;;;;;;5022615;28;21124;-86
2024/02/16 05:39:26;;;;;;;4.93;4.73;;;;;;;;;;5024467;28;20530;-86
2024/02/16 05:41:53;;;;;;;4.93;4.73;;;;;;;;;;5025856;28;20462;-87
2024/02/16 05:44:19;;;;;;;6.70;6.50;;;;;;;;;;5022599;28;20801;-85
2024/02/16 05:46:46;;;;;;;4.90;4.70;;;;;;;;;;5025372;28;20464;-85
2024/02/16 05:49:13;;;;;;;5.50;5.30;;;;;;;;;;5020279;28;20603;-86
2024/02/16 05:51:40;;;;;;;4.73;4.63;;;;;;;;;;5035038;28;20457;-85
2024/02/16 05:54:07;;;;;;;4.63;4.53;;;;;;;;;;5027262;28;20474;-84
2024/02/16 05:56:34;;;;;;;5.00;4.80;;;;;;;;;;5032295;28;20496;-84
2024/02/16 05:59:00;;;;;;;5.27;5.07;;;;;;;;;;5021940;28;20451;-86
2024/02/16 06:01:27;;;;;;;4.53;4.43;;;;;;;;;;5018239;28;20526;-84
2024/02/16 06:03:54;;;;;;;4.13;4.03;;;;;;;;;;5027898;28;20464;-84
2024/02/16 06:06:21;;;;;;;4.10;4.00;;;;;;;;;;5018108;28;20490;-84
2024/02/16 06:08:48;;;;;;;4.47;4.37;;;;;;;;;;5016410;28;20455;-83
2024/02/16 06:11:15;;;;;;;4.47;4.37;;;;;;;;;;5032276;28;20525;-85
2024/02/16 06:13:41;;;;;;;4.30;4.20;;;;;;;;;;5025061;28;20513;-85
2024/02/16 06:16:08;;;;;;;4.20;4.10;;;;;;;;;;5021358;28;20569;-84
2024/02/16 06:18:35;;;;;;;4.20;4.10;;;;;;;;;;5035039;28;21339;-85
2024/02/16 06:21:02;;;;;;;4.60;4.50;;;;;;;;;;5019884;28;20533;-82
2024/02/16 06:23:30;;;;;;;4.40;4.30;;;;;;;;;;5029213;28;20497;-83
2024/02/16 06:25:56;;;;;;;4.93;4.73;;;;;;;;;;5033191;28;20517;-82
2024/02/16 06:28:23;;;;;;;4.23;4.13;;;;;;;;;;5030629;28;20538;-82
2024/02/16 06:30:50;;;;;;;4.10;4.00;;;;;;;;;;5024819;28;20459;-83
2024/02/16 06:33:16;;;;;;;4.50;4.40;;;;;;;;;;5013258;28;20506;-82
2024/02/16 06:35:43;;;;;;;4.70;4.57;;;;;;;;;;5020272;28;20455;-83
2024/02/16 06:38:09;;;;;;;5.10;4.90;;;;;;;;;;5020894;28;21574;-82
2024/02/16 06:40:37;;;;;;;5.47;5.27;;;;;;;;;;5021561;28;20562;-82
2024/02/16 06:43:05;;;;;;;4.43;4.33;;;;;;;;;;5014246;28;20456;-82
2024/02/16 06:45:31;;;;;;;4.50;4.40;;;;;;;;;;5019940;28;20780;-82
2024/02/16 06:47:58;;;;;;;4.60;4.50;;;;;;;;;;5011630;28;20553;-82
2024/02/16 06:50:24;;;;;;;5.00;4.80;;;;;;;;;;5015045;28;20530;-82
2024/02/16 06:52:50;;;;;;;4.83;4.70;;;;;;;;;;5016847;28;20566;-82
2024/02/16 06:55:17;;;;;;;4.47;4.37;;;;;;;;;;5018640;28;20559;-82
2024/02/16 06:57:44;;;;;;;4.30;4.20;;;;;;;;;;5021178;28;20493;-82
2024/02/16 07:00:11;;;;;;;4.93;4.73;;;;;;;;;;5019129;28;20512;-82
2024/02/16 07:02:38;;;;;;;4.57;4.47;;;;;;;;;;5019530;28;20553;-82
2024/02/16 07:05:04;;;;;;;4.23;4.13;;;;;;;;;;5021225;28;20494;-82
2024/02/16 07:07:32;;;;;;;4.67;4.57;;;;;;;;;;5020403;28;20451;-83
2024/02/16 07:09:58;;;;;;;4.33;4.23;;;;;;;;;;5020624;28;20466;-82
2024/02/16 07:12:25;;;;;;;5.17;4.97;;;;;;;;;;5018683;28;20537;-82
2024/02/16 07:14:53;;;;;;;5.13;4.93;;;;;;;;;;5013031;28;20561;-82
2024/02/16 07:17:19;;;;;;;5.20;5.00;;;;;;;;;;5018273;28;20536;-82
2024/02/16 07:19:46;;;;;;;4.97;4.77;;;;;;;;;;5007922;28;20538;-82
2024/02/16 07:22:12;;;;;;;5.10;4.90;;;;;;;;;;5018447;28;20531;-82
2024/02/16 07:24:38;;;;;;;3.93;3.83;;;;;;;;;;5019858;28;20478;-81
2024/02/16 07:27:05;;;;;;;3.70;3.60;;;;;;;;;;5016003;28;20819;-80
2024/02/16 07:29:31;;;;;;;19.03;17.40;;;;;;;;;;5010247;28;20955;-82
2024/02/16 07:31:59;;;;;;;3.73;3.63;;;;;;;;;;5018271;28;20455;-83
2024/02/16 07:34:26;;;;;;;5.03;4.83;;;;;;;;;;5014168;28;20491;-81
2024/02/16 07:36:52;;;;;;;4.40;4.30;;;;;;;;;;5018122;28;20486;-81
2024/02/16 07:39:19;;;;;;;5.23;5.03;;;;;;;;;;5016087;28;20456;-82
2024/02/16 07:41:45;;;;;;;5.07;4.87;;;;;;;;;;5013747;28;21031;-82
2024/02/16 07:44:12;;;;;;;5.20;5.00;;;;;;;;;;5018804;28;20526;-86
2024/02/16 07:46:41;;;;;;;4.93;4.73;;;;;;;;;;5015407;28;20559;-80
2024/02/16 07:49:10;;;;;;;4.90;4.70;;;;;;;;;;5018599;28;20482;-85
2024/02/16 07:51:37;;;;;;;5.47;5.27;;;;;;;;;;5012254;28;20459;-86
2024/02/16 07:54:03;;;;;;;5.23;5.03;;;;;;;;;;5011424;28;20506;-86
2024/02/16 07:56:30;;;;;;;4.90;4.70;;;;;;;;;;5007583;28;20555;-85
2024/02/16 07:58:56;;;;;;;5.23;5.03;;;;;;;;;;5014819;28;20505;-85
2024/02/16 08:01:23;;;;;;;5.73;5.40;;;;;;;;;;5020046;28;20485;-81
2024/02/16 08:03:50;;;;;;;5.17;4.97;;;;;;;;;;5018274;28;20470;-79
2024/02/16 08:06:20;;;;;;;5.20;5.00;;;;;;;;;;5020846;28;20459;-79
2024/02/16 08:08:47;;;;;;;5.03;4.83;;;;;;;;;;5021863;28;20951;-80
2024/02/16 08:11:13;;;;;;;16.63;14.80;;;;;;;;;;5021150;28;20534;-80
2024/02/16 08:13:40;;;;;;;4.80;4.60;;;;;;;;;;5021745;28;20463;-79
2024/02/16 08:16:07;;;;;;;5.10;4.90;;;;;;;;;;5017800;28;20552;-78
2024/02/16 08:18:33;;;;;;;4.30;4.20;;;;;;;;;;5021294;28;20470;-78
2024/02/16 08:20:59;;;;;;;4.80;4.60;;;;;;;;;;5019162;28;20466;-78
2024/02/16 08:23:27;;;;;;;4.67;4.50;;;;;;;;;;5019316;28;20474;-81
2024/02/16 08:25:53;;;;;;;4.33;4.23;;;;;;;;;;5008338;28;20503;-80
2024/02/16 08:28:20;;;;;;;4.50;4.40;;;;;;;;;;5019506;28;20478;-79
2024/02/16 08:30:46;;;;;;;4.23;4.13;;;;;;;;;;5011965;28;20510;-79
2024/02/16 08:33:13;;;;;;;4.10;4.00;;;;;;;;;;5016959;28;20546;-77
2024/02/16 08:35:39;;;;;;;4.47;4.37;;;;;;;;;;5019148;28;20521;-78
2024/02/16 08:38:10;;;;;;;4.40;4.30;;;;;;;;;;5015476;28;20490;-79
2024/02/16 08:40:38;;;;;;;4.30;4.20;;;;;;;;;;5018625;28;20497;-79
2024/02/16 08:43:04;;;;;;;4.53;4.43;;;;;;;;;;5019037;28;21066;-80
2024/02/16 08:45:31;;;;;;;5.00;4.80;;;;;;;;;;5013159;28;20497;-81
2024/02/16 08:47:57;;;;;;;4.53;4.43;;;;;;;;;;5013470;28;20474;-81
2024/02/16 08:50:24;;;;;;;5.40;5.20;;;;;;;;;;5012424;28;20472;-80
2024/02/16 08:52:51;;;;;;;4.63;4.50;;;;;;;;;;5017942;28;20458;-79
2024/02/16 08:55:18;;;;;;;4.00;3.90;;;;;;;;;;5019469;28;20509;-79
2024/02/16 08:57:46;;;;;;;3.70;3.60;;;;;;;;;;5010398;28;20860;-80
2024/02/16 09:00:13;;;;;;;4.30;4.20;;;;;;;;;;5002723;28;21024;-81
2024/02/16 09:02:39;;;;;;;3.50;3.40;;;;;;;;;;5019536;28;20541;-79
2024/02/16 09:05:09;;;;;;;4.10;4.00;;;;;;;;;;5017889;28;20486;-80
2024/02/16 09:07:35;;;;;;;4.17;4.07;;;;;;;;;;5004666;28;20455;-79
2024/02/16 09:10:02;;;;;;;4.13;4.03;;;;;;;;;;5016602;28;20534;-80
2024/02/16 09:12:28;;;;;;;4.00;3.90;;;;;;;;;;5019896;28;20454;-80
2024/02/16 09:14:56;;;;;;;4.83;4.63;;;;;;;;;;5015493;28;20494;-81
2024/02/16 09:17:22;;;;;;;4.30;4.20;;;;;;;;;;5012177;28;20525;-81
2024/02/16 09:19:49;;;;;;;4.07;3.97;;;;;;;;;;5010151;28;20523;-79
2024/02/16 09:22:15;;;;;;;3.93;3.83;;;;;;;;;;5016883;28;20497;-79
2024/02/16 09:24:41;;;;;;;3.60;3.50;;;;;;;;;;5012698;28;21034;-78
2024/02/16 09:27:09;;;;;;;4.70;4.50;;;;;;;;;;5014192;28;20449;-79
2024/02/16 09:29:36;;;;;;;3.90;3.80;;;;;;;;;;5012495;28;20458;-80
2024/02/16 09:32:04;;;;;;;3.90;3.80;;;;;;;;;;5012918;28;20558;-79
2024/02/16 09:34:30;;;;;;;4.83;4.63;;;;;;;;;;5014016;28;20505;-77
2024/02/16 09:36:57;;;;;;;4.77;4.57;;;;;;;;;;5019814;28;20564;-78
2024/02/16 09:39:24;;;;;;;5.00;4.80;;;;;;;;;;5018044;28;20574;-79
2024/02/16 09:41:51;;;;;;;5.00;4.80;;;;;;;;;;5011433;28;20458;-79
2024/02/16 09:44:17;;;;;;;5.20;5.00;;;;;;;;;;5018282;28;20458;-80
2024/02/16 09:46:44;;;;;;;5.33;5.13;;;;;;;;;;5018770;28;20526;-79
2024/02/16 09:49:12;;;;;;;4.93;4.73;;;;;;;;;;5017599;28;21097;-79
2024/02/16 09:51:38;;;;;;;5.00;4.80;;;;;;;;;;5016908;28;20573;-80
2024/02/16 09:54:07;;;;;;;5.53;5.33;;;;;;;;;;5013958;28;20450;-80
2024/02/16 09:56:33;;;;;;;5.07;4.87;;;;;;;;;;5021131;28;20588;-80
2024/02/16 09:58:59;;;;;;;5.33;5.13;;;;;;;;;;5019884;28;20632;-80
2024/02/16 10:01:26;;;;;;;5.07;4.87;;;;;;;;;;5018317;28;20450;-79
2024/02/16 10:03:53;;;;;;;13.80;9.97;;;;;;;;;;5020696;28;20490;-78
2024/02/16 10:06:22;;;;;;;5.37;5.17;;;;;;;;;;5023772;28;20481;-79
2024/02/16 10:08:49;;;;;;;5.10;4.90;;;;;;;;;;5020737;28;20458;-79
2024/02/16 10:11:15;;;;;;;3.90;3.80;;;;;;;;;;5022961;28;21002;-78
2024/02/16 10:13:42;;;;;;;5.37;5.17;;;;;;;;;;5023103;28;20931;-79
2024/02/16 10:16:09;;;;;;;5.10;4.90;;;;;;;;;;5018481;28;20490;-79
2024/02/16 10:18:36;;;;;;;5.20;5.00;;;;;;;;;;5022504;28;20527;-78
2024/02/16 10:21:03;;;;;;;4.97;4.77;;;;;;;;;;5015112;28;20468;-78
2024/02/16 10:23:31;;;;;;;5.20;5.00;;;;;;;;;;5018154;28;20489;-79
2024/02/16 10:25:58;;;;;;;5.80;5.60;;;;;;;;;;5021048;28;20542;-79
2024/02/16 10:28:27;;;;;;;4.10;4.00;;;;;;;;;;5023370;28;20451;-78
2024/02/16 10:30:57;;;;;;;4.60;4.40;;;;;;;;;;5023333;28;20491;-78
2024/02/16 10:33:24;;;;;;;4.83;4.63;;;;;;;;;;5022067;28;20574;-80
2024/02/16 10:35:51;;;;;;;4.97;4.77;;;;;;;;;;5018323;28;20496;-78
2024/02/16 10:38:18;;;;;;;5.40;5.20;;;;;;;;;;5020215;28;20474;-79
2024/02/16 10:40:48;;;;;;;5.90;5.70;;;;;;;;;;5022412;28;20455;-80
2024/02/16 10:43:14;;;;;;;6.40;6.20;;;;;;;;;;5022962;28;21056;-80
2024/02/16 10:45:40;;;;;;;6.70;6.50;;;;;;;;;;5021189;28;20518;-79
2024/02/16 10:48:07;;;;;;;6.40;6.20;;;;;;;;;;5018283;28;20464;-81
2024/02/16 10:50:35;;;;;;;6.40;6.20;;;;;;;;;;5020798;28;20959;-79
2024/02/16 10:53:05;;;;;;;5.13;4.93;;;;;;;;;;5021881;28;20485;-81
2024/02/16 10:55:31;;;;;;;5.03;4.83;;;;;;;;;;5020239;28;20521;-81
2024/02/16 10:58:00;;;;;;;5.80;5.60;;;;;;;;;;5021527;28;20455;-79
2024/02/16 11:00:26;;;;;;;6.00;5.80;;;;;;;;;;5020316;28;20474;-79
2024/02/16 11:02:58;;;;;;;5.53;5.33;;;;;;;;;;5019020;28;20458;-78
2024/02/16 11:05:34;;;;;;;6.23;5.70;;;;;;;;;;5021130;28;20477;-79
2024/02/16 11:08:04;;;;;;;5.23;5.03;;;;;;;;;;5018826;28;20454;-80
2024/02/16 11:10:30;;;;;;;4.60;4.40;;;;;;;;;;5021355;28;20534;-80
2024/02/16 11:13:02;;;;;;;5.10;4.90;;;;;;;;;;5020950;28;20459;-79
2024/02/16 11:15:28;;;;;;;4.70;4.50;;;;;;;;;;5015278;28;20494;-80
2024/02/16 11:17:58;;;;;;;5.17;4.97;;;;;;;;;;5014637;28;20474;-81
2024/02/16 11:20:24;;;;;;;5.50;5.30;;;;;;;;;;5016710;28;20468;-79
2024/02/16 11:22:52;;;;;;;6.30;5.90;;;;;;;;;;5018492;28;20461;-79
2024/02/16 11:25:18;;;;;;;5.37;5.17;;;;;;;;;;5018707;28;20526;-80
2024/02/16 11:27:45;;;;;;;4.00;3.90;;;;;;;;;;5020187;28;20482;-78
2024/02/16 11:30:14;;;;;;;3.87;3.77;;;;;;;;;;5018001;28;20463;-79
2024/02/16 11:32:43;;;;;;;3.83;3.73;;;;;;;;;;5019268;28;20450;-79
2024/02/16 11:35:11;;;;;;;3.50;3.40;;;;;;;;;;5019449;28;20526;-82
2024/02/16 11:37:37;;;;;;;4.93;4.73;;;;;;;;;;5016831;28;20465;-83
2024/02/16 11:40:04;;;;;;;5.23;5.03;;;;;;;;;;5010025;28;20526;-81
2024/02/16 11:42:31;;;;;;;6.00;5.80;;;;;;;;;;5018472;28;20448;-81
2024/02/16 11:44:57;;;;;;;5.67;5.47;;;;;;;;;;5014233;28;20565;-84
2024/02/16 11:47:26;;;;;;;5.80;5.60;;;;;;;;;;5020259;28;20459;-82
2024/02/16 11:50:00;;;;;;;5.13;4.93;;;;;;;;;;5016021;28;20539;-82
2024/02/16 11:52:27;;;;;;;5.10;4.90;;;;;;;;;;5020350;28;20532;-82
2024/02/16 11:54:53;;;;;;;5.20;5.00;;;;;;;;;;5013977;28;20452;-82
2024/02/16 11:57:20;;;;;;;5.00;4.80;;;;;;;;;;5016933;28;20523;-83
2024/02/16 11:59:46;;;;;;;5.10;4.90;;;;;;;;;;5020317;28;20893;-82
2024/02/16 12:02:18;;;;;;;4.63;4.43;;;;;;;;;;5020507;28;20469;-82
2024/02/16 12:04:46;;;;;;;4.90;4.70;;;;;;;;;;5020503;28;20476;-80
2024/02/16 12:07:13;;;;;;;4.80;4.60;;;;;;;;;;5018075;28;20454;-80
2024/02/16 12:09:40;;;;;;;4.63;4.47;;;;;;;;;;5021591;28;20566;-83
2024/02/16 12:12:07;;;;;;;5.90;5.70;;;;;;;;;;5015637;28;20463;-84
2024/02/16 12:14:34;;;;;;;5.00;4.80;;;;;;;;;;5016304;28;20588;-82
2024/02/16 12:17:00;;;;;;;5.53;5.33;;;;;;;;;;5019504;28;20503;-82
2024/02/16 12:19:26;;;;;;;5.20;5.00;;;;;;;;;;5018862;28;20462;-82
2024/02/16 12:21:57;;;;;;;5.13;4.93;;;;;;;;;;5013821;28;20550;-80
2024/02/16 12:24:23;;;;;;;4.90;4.70;;;;;;;;;;5020059;28;20459;-82
2024/02/16 12:26:49;;;;;;;4.90;4.70;;;;;;;;;;5019974;28;20910;-80
2024/02/16 12:29:16;;;;;;;5.50;5.30;;;;;;;;;;5016142;28;20486;-80
2024/02/16 12:31:44;;;;;;;5.23;5.03;;;;;;;;;;5012939;28;20578;-84
2024/02/16 12:34:10;;;;;;;4.50;4.30;;;;;;;;;;5016902;28;20459;-84
2024/02/16 12:36:37;;;;;;;3.93;3.83;;;;;;;;;;5021036;28;20498;-81
2024/02/16 12:39:06;;;;;;;3.80;3.70;;;;;;;;;;5018596;28;20447;-80
2024/02/16 12:41:32;;;;;;;4.00;3.90;;;;;;;;;;5020587;28;20466;-82
2024/02/16 12:43:58;;;;;;;3.70;3.60;;;;;;;;;;5015514;28;20523;-84
2024/02/16 12:46:25;;;;;;;3.83;3.73;;;;;;;;;;5020159;28;20443;-82
2024/02/16 12:48:53;;;;;;;4.63;4.43;;;;;;;;;;5013508;28;20451;-81
2024/02/16 12:51:19;;;;;;;4.97;4.77;;;;;;;;;;5018655;28;20458;-80
2024/02/16 12:53:46;;;;;;;5.10;4.90;;;;;;;;;;5014654;28;20447;-81
2024/02/16 12:56:14;;;;;;;5.93;5.43;;;;;;;;;;5020590;28;20546;-83
2024/02/16 12:58:40;;;;;;;4.97;4.77;;;;;;;;;;5015261;28;20478;-78
2024/02/16 13:01:07;;;;;;;4.57;4.40;;;;;;;;;;5020312;28;20528;-84
2024/02/16 13:03:34;;;;;;;5.40;5.20;;;;;;;;;;5014383;28;20467;-80
2024/02/16 13:06:01;;;;;;;4.60;4.40;;;;;;;;;;5017077;28;20447;-82
2024/02/16 13:08:27;;;;;;;4.73;4.53;;;;;;;;;;5020946;28;20447;-80
2024/02/16 13:10:54;;;;;;;4.87;4.67;;;;;;;;;;5017767;28;20886;-80
2024/02/16 13:13:22;;;;;;;4.80;4.60;;;;;;;;;;5005299;28;20448;-79
2024/02/16 13:15:48;;;;;;;4.80;4.60;;;;;;;;;;5019318;28;20529;-79
2024/02/16 13:18:15;;;;;;;5.80;5.60;;;;;;;;;;5019685;28;20516;-80
2024/02/16 13:20:41;;;;;;;4.40;4.30;;;;;;;;;;5019604;28;20458;-80
2024/02/16 13:23:07;;;;;;;4.27;4.10;;;;;;;;;;5016882;28;20503;-81
2024/02/16 13:25:34;;;;;;;4.03;3.93;;;;;;;;;;5014666;28;20526;-79
2024/02/16 13:28:00;;;;;;;4.17;4.07;;;;;;;;;;5021173;28;20545;-81
2024/02/16 13:30:28;;;;;;;4.67;4.50;;;;;;;;;;5022303;28;20536;-78
2024/02/16 13:32:55;;;;;;;4.30;4.20;;;;;;;;;;5022461;28;20470;-78
2024/02/16 13:35:21;;;;;;;3.97;3.87;;;;;;;;;;5021988;28;20548;-78
2024/02/16 13:37:47;;;;;;;4.20;4.10;;;;;;;;;;5033638;28;20569;-79
2024/02/16 13:40:14;;;;;;;4.70;4.50;;;;;;;;;;5037785;28;20473;-80
2024/02/16 13:42:40;;;;;;;4.83;4.63;;;;;;;;;;5036791;28;20463;-82
2024/02/16 13:45:07;;;;;;;4.17;4.07;;;;;;;;;;5032382;28;20525;-81
2024/02/16 13:47:35;;;;;;;4.20;4.10;;;;;;;;;;5030792;28;20536;-78
2024/02/16 13:50:02;;;;;;;4.50;4.30;;;;;;;;;;5022945;28;20470;-79
2024/02/16 13:52:28;;;;;;;4.50;4.40;;;;;;;;;;5028223;28;20538;-81
2024/02/16 13:54:55;;;;;;;4.20;4.10;;;;;;;;;;5024076;28;20439;-81
2024/02/16 13:57:21;;;;;;;3.90;3.80;;;;;;;;;;5028311;28;20485;-80
2024/02/16 13:59:48;;;;;;;2.60;2.50;;;;;;;;;;5023100;28;20479;-81
2024/02/16 14:02:14;;;;;;;3.00;2.90;;;;;;;;;;5036559;28;20453;-81
2024/02/16 14:04:42;;;;;;;3.07;2.97;;;;;;;;;;5031719;28;20552;-80
2024/02/16 14:07:09;;;;;;;2.70;2.60;;;;;;;;;;5021059;28;20481;-81
2024/02/16 14:09:36;;;;;;;3.20;3.10;;;;;;;;;;5009915;28;20462;-80
2024/02/16 14:12:02;;;;;;;3.50;3.40;;;;;;;;;;5017580;28;20459;-80
2024/02/16 14:14:29;;;;;;;4.60;4.43;;;;;;;;;;5019732;28;20463;-79
2024/02/16 14:16:56;;;;;;;4.87;4.67;;;;;;;;;;5021924;28;21862;-80
2024/02/16 14:19:23;;;;;;;3.30;3.20;;;;;;;;;;5022389;28;20468;-82
2024/02/16 14:21:50;;;;;;;4.73;4.47;;;;;;;;;;5021974;28;20459;-79
2024/02/16 14:24:17;;;;;;;5.37;3.63;;;;;;;;;;5019298;28;20558;-80
2024/02/16 14:26:44;;;;;;;3.60;3.50;;;;;;;;;;5022247;28;20819;-79
2024/02/16 14:29:11;;;;;;;7.53;7.10;;;;;;;;;;5020596;28;20482;-78
2024/02/16 14:31:37;;;;;;;3.37;3.27;;;;;;;;;;5024454;28;20538;-78
2024/02/16 14:34:04;;;;;;;3.33;3.23;;;;;;;;;;5024733;28;20705;-80
2024/02/16 14:36:30;;;;;;;3.20;3.10;;;;;;;;;;5030657;28;20568;-81
2024/02/16 14:38:58;;;;;;;3.13;3.03;;;;;;;;;;5026226;28;20470;-80
2024/02/16 14:41:24;;;;;;;2.80;2.70;;;;;;;;;;5023801;28;20539;-80